sensor_id;sensor_type;location;lat;lon;timestamp;P1;durP1;ratioP1;P2;durP2;ratioP2
28629;SDS011;15817;42.130;24.762;2023-11-19T00:01:53;1.63;;;0.80;;
28629;SDS011;15817;42.130;24.762;2023-11-19T00:04:19;1.30;;;1.10;;
28629;SDS011;15817;42.130;24.762;2023-11-19T00:06:58;1.33;;;0.88;;
28629;SDS011;15817;42.130;24.762;2023-11-19T00:09:49;1.92;;;0.98;;
28629;SDS011;15817;42.130;24.762;2023-11-19T00:12:27;1.60;;;0.93;;
28629;SDS011;15817;42.130;24.762;2023-11-19T00:17:59;1.25;;;0.90;;
28629;SDS011;15817;42.130;24.762;2023-11-19T00:20:36;1.13;;;0.70;;
28629;SDS011;15817;42.130;24.762;2023-11-19T00:23:11;1.92;;;0.90;;
28629;SDS011;15817;42.130;24.762;2023-11-19T00:25:39;2.47;;;1.00;;
28629;SDS011;15817;42.130;24.762;2023-11-19T00:28:23;1.15;;;0.90;;
28629;SDS011;15817;42.130;24.762;2023-11-19T00:31:00;1.38;;;0.82;;
28629;SDS011;15817;42.130;24.762;2023-11-19T00:33:46;0.80;;;0.65;;
28629;SDS011;15817;42.130;24.762;2023-11-19T00:36:27;0.75;;;0.75;;
28629;SDS011;15817;42.130;24.762;2023-11-19T00:42:00;0.70;;;0.70;;
28629;SDS011;15817;42.130;24.762;2023-11-19T00:44:34;0.90;;;0.80;;
28629;SDS011;15817;42.130;24.762;2023-11-19T00:49:59;2.33;;;0.80;;
28629;SDS011;15817;42.130;24.762;2023-11-19T00:52:30;1.60;;;0.90;;
28629;SDS011;15817;42.130;24.762;2023-11-19T00:55:01;1.02;;;0.90;;
28629;SDS011;15817;42.130;24.762;2023-11-19T00:57:37;1.05;;;0.80;;
28629;SDS011;15817;42.130;24.762;2023-11-19T01:00:08;1.83;;;0.80;;
28629;SDS011;15817;42.130;24.762;2023-11-19T01:03:00;2.80;;;0.80;;
28629;SDS011;15817;42.130;24.762;2023-11-19T01:05:52;1.00;;;0.90;;
28629;SDS011;15817;42.130;24.762;2023-11-19T01:08:44;1.00;;;1.00;;
28629;SDS011;15817;42.130;24.762;2023-11-19T01:11:22;1.35;;;0.90;;
28629;SDS011;15817;42.130;24.762;2023-11-19T01:16:50;1.00;;;0.90;;
28629;SDS011;15817;42.130;24.762;2023-11-19T01:19:19;1.73;;;0.90;;
28629;SDS011;15817;42.130;24.762;2023-11-19T01:22:06;2.00;;;1.20;;
28629;SDS011;15817;42.130;24.762;2023-11-19T01:24:37;1.20;;;1.10;;
28629;SDS011;15817;42.130;24.762;2023-11-19T01:27:13;1.30;;;1.00;;
28629;SDS011;15817;42.130;24.762;2023-11-19T01:29:45;0.77;;;0.75;;
28629;SDS011;15817;42.130;24.762;2023-11-19T01:32:11;1.00;;;0.82;;
28629;SDS011;15817;42.130;24.762;2023-11-19T01:34:40;1.42;;;0.75;;
28629;SDS011;15817;42.130;24.762;2023-11-19T01:37:06;1.02;;;0.93;;
28629;SDS011;15817;42.130;24.762;2023-11-19T01:40:05;1.00;;;0.90;;
28629;SDS011;15817;42.130;24.762;2023-11-19T01:42:43;0.98;;;0.70;;
28629;SDS011;15817;42.130;24.762;2023-11-19T01:45:31;1.00;;;0.82;;
28629;SDS011;15817;42.130;24.762;2023-11-19T01:48:02;1.05;;;0.80;;
28629;SDS011;15817;42.130;24.762;2023-11-19T01:50:35;4.75;;;0.90;;
28629;SDS011;15817;42.130;24.762;2023-11-19T01:53:26;0.82;;;0.77;;
28629;SDS011;15817;42.130;24.762;2023-11-19T01:56:01;1.15;;;0.90;;
28629;SDS011;15817;42.130;24.762;2023-11-19T01:58:42;1.30;;;1.20;;
28629;SDS011;15817;42.130;24.762;2023-11-19T02:01:10;6.07;;;1.17;;
28629;SDS011;15817;42.130;24.762;2023-11-19T02:03:54;1.85;;;1.23;;
28629;SDS011;15817;42.130;24.762;2023-11-19T02:06:43;0.88;;;0.75;;
28629;SDS011;15817;42.130;24.762;2023-11-19T02:09:18;1.38;;;0.82;;
28629;SDS011;15817;42.130;24.762;2023-11-19T02:11:51;2.33;;;0.80;;
28629;SDS011;15817;42.130;24.762;2023-11-19T02:14:17;0.82;;;0.80;;
28629;SDS011;15817;42.130;24.762;2023-11-19T02:17:01;1.02;;;0.80;;
28629;SDS011;15817;42.130;24.762;2023-11-19T02:19:40;1.10;;;1.00;;
28629;SDS011;15817;42.130;24.762;2023-11-19T02:22:16;1.10;;;1.00;;
28629;SDS011;15817;42.130;24.762;2023-11-19T02:24:46;0.80;;;0.80;;
28629;SDS011;15817;42.130;24.762;2023-11-19T02:28:10;0.95;;;0.90;;
28629;SDS011;15817;42.130;24.762;2023-11-19T02:30:29;2.63;;;1.02;;
28629;SDS011;15817;42.130;24.762;2023-11-19T02:35:58;1.80;;;1.08;;
28629;SDS011;15817;42.130;24.762;2023-11-19T02:38:29;1.05;;;0.98;;
28629;SDS011;15817;42.130;24.762;2023-11-19T02:40:58;1.90;;;0.95;;
28629;SDS011;15817;42.130;24.762;2023-11-19T02:43:24;1.75;;;1.05;;
28629;SDS011;15817;42.130;24.762;2023-11-19T02:46:02;1.58;;;1.10;;
28629;SDS011;15817;42.130;24.762;2023-11-19T02:48:37;1.83;;;1.17;;
28629;SDS011;15817;42.130;24.762;2023-11-19T02:51:05;1.48;;;1.20;;
28629;SDS011;15817;42.130;24.762;2023-11-19T02:53:37;4.40;;;1.20;;
28629;SDS011;15817;42.130;24.762;2023-11-19T02:56:19;1.65;;;1.10;;
28629;SDS011;15817;42.130;24.762;2023-11-19T02:59:19;1.40;;;1.30;;
28629;SDS011;15817;42.130;24.762;2023-11-19T03:01:53;1.33;;;1.10;;
28629;SDS011;15817;42.130;24.762;2023-11-19T03:04:19;1.45;;;1.20;;
28629;SDS011;15817;42.130;24.762;2023-11-19T03:06:50;3.92;;;1.25;;
28629;SDS011;15817;42.130;24.762;2023-11-19T03:09:21;3.33;;;1.42;;
28629;SDS011;15817;42.130;24.762;2023-11-19T03:12:09;5.13;;;1.50;;
28629;SDS011;15817;42.130;24.762;2023-11-19T03:14:39;2.75;;;1.40;;
28629;SDS011;15817;42.130;24.762;2023-11-19T03:17:18;2.38;;;1.20;;
28629;SDS011;15817;42.130;24.762;2023-11-19T03:19:57;1.45;;;1.30;;
28629;SDS011;15817;42.130;24.762;2023-11-19T03:22:43;1.83;;;1.50;;
28629;SDS011;15817;42.130;24.762;2023-11-19T03:25:52;2.22;;;1.20;;
28629;SDS011;15817;42.130;24.762;2023-11-19T03:28:26;2.40;;;1.50;;
28629;SDS011;15817;42.130;24.762;2023-11-19T03:30:54;4.10;;;1.33;;
28629;SDS011;15817;42.130;24.762;2023-11-19T03:33:23;3.22;;;1.63;;
28629;SDS011;15817;42.130;24.762;2023-11-19T03:35:49;3.38;;;1.70;;
28629;SDS011;15817;42.130;24.762;2023-11-19T03:38:27;6.78;;;1.48;;
28629;SDS011;15817;42.130;24.762;2023-11-19T03:41:03;4.85;;;1.50;;
28629;SDS011;15817;42.130;24.762;2023-11-19T03:43:38;3.97;;;1.30;;
28629;SDS011;15817;42.130;24.762;2023-11-19T03:46:19;3.70;;;1.40;;
28629;SDS011;15817;42.130;24.762;2023-11-19T03:48:55;5.45;;;1.40;;
28629;SDS011;15817;42.130;24.762;2023-11-19T03:51:48;1.50;;;1.20;;
28629;SDS011;15817;42.130;24.762;2023-11-19T03:54:22;3.67;;;1.38;;
28629;SDS011;15817;42.130;24.762;2023-11-19T03:56:59;1.92;;;1.38;;
28629;SDS011;15817;42.130;24.762;2023-11-19T03:59:36;3.47;;;1.52;;
28629;SDS011;15817;42.130;24.762;2023-11-19T04:02:48;2.47;;;1.17;;
28629;SDS011;15817;42.130;24.762;2023-11-19T04:05:23;3.72;;;1.27;;
28629;SDS011;15817;42.130;24.762;2023-11-19T04:07:49;2.38;;;1.40;;
28629;SDS011;15817;42.130;24.762;2023-11-19T04:10:15;5.60;;;1.35;;
28629;SDS011;15817;42.130;24.762;2023-11-19T04:12:48;2.67;;;1.70;;
28629;SDS011;15817;42.130;24.762;2023-11-19T04:15:14;1.13;;;1.02;;
28629;SDS011;15817;42.130;24.762;2023-11-19T04:17:46;1.55;;;1.33;;
28629;SDS011;15817;42.130;24.762;2023-11-19T04:20:18;1.75;;;1.00;;
28629;SDS011;15817;42.130;24.762;2023-11-19T04:22:46;2.72;;;1.20;;
28629;SDS011;15817;42.130;24.762;2023-11-19T04:25:16;1.30;;;1.20;;
28629;SDS011;15817;42.130;24.762;2023-11-19T04:27:44;1.20;;;1.10;;
28629;SDS011;15817;42.130;24.762;2023-11-19T04:30:15;1.52;;;1.17;;
28629;SDS011;15817;42.130;24.762;2023-11-19T04:32:52;1.73;;;1.30;;
28629;SDS011;15817;42.130;24.762;2023-11-19T04:35:29;3.35;;;1.27;;
28629;SDS011;15817;42.130;24.762;2023-11-19T04:38:19;2.42;;;1.60;;
28629;SDS011;15817;42.130;24.762;2023-11-19T04:40:47;2.05;;;1.42;;
28629;SDS011;15817;42.130;24.762;2023-11-19T04:43:15;2.13;;;1.42;;
28629;SDS011;15817;42.130;24.762;2023-11-19T04:45:41;1.95;;;1.50;;
28629;SDS011;15817;42.130;24.762;2023-11-19T04:48:07;4.65;;;2.13;;
28629;SDS011;15817;42.130;24.762;2023-11-19T04:50:35;2.30;;;1.83;;
28629;SDS011;15817;42.130;24.762;2023-11-19T04:56:07;1.42;;;1.13;;
28629;SDS011;15817;42.130;24.762;2023-11-19T04:58:39;1.67;;;1.40;;
28629;SDS011;15817;42.130;24.762;2023-11-19T05:01:12;1.40;;;1.30;;
28629;SDS011;15817;42.130;24.762;2023-11-19T05:03:43;2.60;;;1.50;;
28629;SDS011;15817;42.130;24.762;2023-11-19T05:06:11;1.45;;;1.25;;
28629;SDS011;15817;42.130;24.762;2023-11-19T05:08:49;3.28;;;1.40;;
28629;SDS011;15817;42.130;24.762;2023-11-19T05:11:15;1.40;;;1.30;;
28629;SDS011;15817;42.130;24.762;2023-11-19T05:13:44;1.50;;;1.20;;
28629;SDS011;15817;42.130;24.762;2023-11-19T05:16:17;2.10;;;1.50;;
28629;SDS011;15817;42.130;24.762;2023-11-19T05:18:48;2.08;;;1.23;;
28629;SDS011;15817;42.130;24.762;2023-11-19T05:21:14;1.90;;;1.25;;
28629;SDS011;15817;42.130;24.762;2023-11-19T05:23:42;2.05;;;1.50;;
28629;SDS011;15817;42.130;24.762;2023-11-19T05:26:16;2.08;;;1.38;;
28629;SDS011;15817;42.130;24.762;2023-11-19T05:28:45;2.83;;;1.50;;
28629;SDS011;15817;42.130;24.762;2023-11-19T05:31:17;3.25;;;1.30;;
28629;SDS011;15817;42.130;24.762;2023-11-19T05:36:53;1.52;;;1.27;;
28629;SDS011;15817;42.130;24.762;2023-11-19T05:39:36;2.17;;;1.45;;
28629;SDS011;15817;42.130;24.762;2023-11-19T05:42:02;2.17;;;1.92;;
28629;SDS011;15817;42.130;24.762;2023-11-19T05:44:42;3.30;;;1.45;;
28629;SDS011;15817;42.130;24.762;2023-11-19T05:47:19;3.17;;;1.75;;
28629;SDS011;15817;42.130;24.762;2023-11-19T05:49:49;7.40;;;1.35;;
28629;SDS011;15817;42.130;24.762;2023-11-19T05:52:38;1.50;;;1.30;;
28629;SDS011;15817;42.130;24.762;2023-11-19T05:55:07;2.10;;;1.60;;
28629;SDS011;15817;42.130;24.762;2023-11-19T06:01:16;2.30;;;1.50;;
28629;SDS011;15817;42.130;24.762;2023-11-19T06:07:38;1.73;;;1.50;;
28629;SDS011;15817;42.130;24.762;2023-11-19T06:14:18;2.17;;;1.30;;
28629;SDS011;15817;42.130;24.762;2023-11-19T06:16:56;1.70;;;1.50;;
28629;SDS011;15817;42.130;24.762;2023-11-19T06:19:56;2.10;;;1.40;;
28629;SDS011;15817;42.130;24.762;2023-11-19T06:22:45;1.58;;;1.48;;
28629;SDS011;15817;42.130;24.762;2023-11-19T06:25:22;1.60;;;1.50;;
28629;SDS011;15817;42.130;24.762;2023-11-19T06:28:11;2.47;;;1.77;;
28629;SDS011;15817;42.130;24.762;2023-11-19T06:30:47;3.47;;;1.60;;
28629;SDS011;15817;42.130;24.762;2023-11-19T06:33:19;2.25;;;1.30;;
28629;SDS011;15817;42.130;24.762;2023-11-19T06:35:50;1.67;;;1.40;;
28629;SDS011;15817;42.130;24.762;2023-11-19T06:42:22;2.50;;;1.80;;
28629;SDS011;15817;42.130;24.762;2023-11-19T06:45:11;1.55;;;1.40;;
28629;SDS011;15817;42.130;24.762;2023-11-19T06:48:45;2.22;;;1.50;;
28629;SDS011;15817;42.130;24.762;2023-11-19T06:51:11;2.63;;;1.30;;
28629;SDS011;15817;42.130;24.762;2023-11-19T06:53:56;1.95;;;1.70;;
28629;SDS011;15817;42.130;24.762;2023-11-19T06:56:32;1.88;;;1.50;;
28629;SDS011;15817;42.130;24.762;2023-11-19T06:59:04;2.58;;;1.95;;
28629;SDS011;15817;42.130;24.762;2023-11-19T07:01:39;5.15;;;1.55;;
28629;SDS011;15817;42.130;24.762;2023-11-19T07:05:00;1.40;;;1.30;;
28629;SDS011;15817;42.130;24.762;2023-11-19T07:08:07;1.42;;;1.33;;
28629;SDS011;15817;42.130;24.762;2023-11-19T07:11:06;3.00;;;1.50;;
28629;SDS011;15817;42.130;24.762;2023-11-19T07:16:39;3.03;;;1.88;;
28629;SDS011;15817;42.130;24.762;2023-11-19T07:19:38;1.95;;;1.58;;
28629;SDS011;15817;42.130;24.762;2023-11-19T07:22:56;4.30;;;1.75;;
28629;SDS011;15817;42.130;24.762;2023-11-19T07:29:28;3.05;;;1.67;;
28629;SDS011;15817;42.130;24.762;2023-11-19T07:31:59;2.65;;;1.52;;
28629;SDS011;15817;42.130;24.762;2023-11-19T07:34:40;2.67;;;1.48;;
28629;SDS011;15817;42.130;24.762;2023-11-19T07:37:37;2.85;;;1.40;;
28629;SDS011;15817;42.130;24.762;2023-11-19T07:40:54;2.08;;;1.45;;
28629;SDS011;15817;42.130;24.762;2023-11-19T07:43:49;3.45;;;1.40;;
28629;SDS011;15817;42.130;24.762;2023-11-19T07:46:55;4.32;;;1.48;;
28629;SDS011;15817;42.130;24.762;2023-11-19T07:50:04;3.28;;;1.42;;
28629;SDS011;15817;42.130;24.762;2023-11-19T07:53:08;1.40;;;1.30;;
28629;SDS011;15817;42.130;24.762;2023-11-19T07:58:55;1.75;;;1.52;;
28629;SDS011;15817;42.130;24.762;2023-11-19T08:01:23;2.63;;;1.60;;
28629;SDS011;15817;42.130;24.762;2023-11-19T08:04:17;1.80;;;1.35;;
28629;SDS011;15817;42.130;24.762;2023-11-19T08:06:56;1.30;;;1.20;;
28629;SDS011;15817;42.130;24.762;2023-11-19T08:09:45;3.30;;;1.40;;
28629;SDS011;15817;42.130;24.762;2023-11-19T08:12:26;1.88;;;1.60;;
28629;SDS011;15817;42.130;24.762;2023-11-19T08:15:15;3.03;;;1.30;;
28629;SDS011;15817;42.130;24.762;2023-11-19T08:18:05;1.95;;;1.30;;
28629;SDS011;15817;42.130;24.762;2023-11-19T08:21:00;1.48;;;1.20;;
28629;SDS011;15817;42.130;24.762;2023-11-19T08:23:46;5.40;;;1.40;;
28629;SDS011;15817;42.130;24.762;2023-11-19T08:26:23;2.00;;;1.52;;
28629;SDS011;15817;42.130;24.762;2023-11-19T08:29:00;1.90;;;1.45;;
28629;SDS011;15817;42.130;24.762;2023-11-19T08:31:40;1.75;;;1.50;;
28629;SDS011;15817;42.130;24.762;2023-11-19T08:34:33;5.05;;;1.52;;
28629;SDS011;15817;42.130;24.762;2023-11-19T08:40:01;2.30;;;1.50;;
28629;SDS011;15817;42.130;24.762;2023-11-19T08:42:32;2.13;;;1.23;;
28629;SDS011;15817;42.130;24.762;2023-11-19T08:45:17;3.28;;;1.50;;
28629;SDS011;15817;42.130;24.762;2023-11-19T08:48:19;2.28;;;1.50;;
28629;SDS011;15817;42.130;24.762;2023-11-19T08:51:05;2.83;;;1.38;;
28629;SDS011;15817;42.130;24.762;2023-11-19T08:53:44;1.45;;;1.27;;
28629;SDS011;15817;42.130;24.762;2023-11-19T08:56:22;14.30;;;2.30;;
28629;SDS011;15817;42.130;24.762;2023-11-19T08:59:23;4.32;;;1.90;;
28629;SDS011;15817;42.130;24.762;2023-11-19T09:02:02;3.40;;;1.95;;
28629;SDS011;15817;42.130;24.762;2023-11-19T09:04:43;4.95;;;1.83;;
28629;SDS011;15817;42.130;24.762;2023-11-19T09:10:37;5.15;;;3.00;;
28629;SDS011;15817;42.130;24.762;2023-11-19T09:13:17;9.52;;;2.97;;
28629;SDS011;15817;42.130;24.762;2023-11-19T09:22:22;5.68;;;2.63;;
28629;SDS011;15817;42.130;24.762;2023-11-19T09:28:28;4.20;;;1.20;;
28629;SDS011;15817;42.130;24.762;2023-11-19T09:31:18;4.20;;;1.67;;
28629;SDS011;15817;42.130;24.762;2023-11-19T09:34:19;2.95;;;2.30;;
28629;SDS011;15817;42.130;24.762;2023-11-19T09:37:05;26.52;;;3.40;;
28629;SDS011;15817;42.130;24.762;2023-11-19T09:40:08;6.53;;;1.60;;
28629;SDS011;15817;42.130;24.762;2023-11-19T09:46:30;7.10;;;1.23;;
28629;SDS011;15817;42.130;24.762;2023-11-19T09:49:08;5.75;;;1.30;;
28629;SDS011;15817;42.130;24.762;2023-11-19T09:51:45;1.65;;;1.27;;
28629;SDS011;15817;42.130;24.762;2023-11-19T09:54:28;1.67;;;1.40;;
28629;SDS011;15817;42.130;24.762;2023-11-19T09:57:11;2.28;;;1.23;;
28629;SDS011;15817;42.130;24.762;2023-11-19T09:59:54;2.15;;;1.27;;
28629;SDS011;15817;42.130;24.762;2023-11-19T10:02:31;1.67;;;1.50;;
28629;SDS011;15817;42.130;24.762;2023-11-19T10:08:11;8.95;;;1.88;;
28629;SDS011;15817;42.130;24.762;2023-11-19T10:11:01;3.78;;;1.50;;
28629;SDS011;15817;42.130;24.762;2023-11-19T10:13:44;2.88;;;1.50;;
28629;SDS011;15817;42.130;24.762;2023-11-19T10:16:17;1.65;;;1.30;;
28629;SDS011;15817;42.130;24.762;2023-11-19T10:19:02;1.95;;;1.48;;
28629;SDS011;15817;42.130;24.762;2023-11-19T10:28:50;2.42;;;1.27;;
28629;SDS011;15817;42.130;24.762;2023-11-19T10:31:34;2.30;;;1.27;;
28629;SDS011;15817;42.130;24.762;2023-11-19T10:40:59;1.58;;;1.40;;
28629;SDS011;15817;42.130;24.762;2023-11-19T10:43:49;8.52;;;1.73;;
28629;SDS011;15817;42.130;24.762;2023-11-19T10:46:38;2.28;;;1.40;;
28629;SDS011;15817;42.130;24.762;2023-11-19T10:49:44;1.73;;;1.20;;
28629;SDS011;15817;42.130;24.762;2023-11-19T10:52:20;1.70;;;1.30;;
28629;SDS011;15817;42.130;24.762;2023-11-19T10:54:50;2.42;;;1.40;;
28629;SDS011;15817;42.130;24.762;2023-11-19T10:57:42;3.38;;;1.38;;
28629;SDS011;15817;42.130;24.762;2023-11-19T11:00:43;1.30;;;1.20;;
28629;SDS011;15817;42.130;24.762;2023-11-19T11:06:44;1.85;;;1.45;;
28629;SDS011;15817;42.130;24.762;2023-11-19T11:09:21;3.28;;;1.42;;
28629;SDS011;15817;42.130;24.762;2023-11-19T11:19:32;3.55;;;1.23;;
28629;SDS011;15817;42.130;24.762;2023-11-19T11:33:29;2.72;;;1.60;;
28629;SDS011;15817;42.130;24.762;2023-11-19T11:40:06;5.35;;;1.60;;
28629;SDS011;15817;42.130;24.762;2023-11-19T11:43:43;1.83;;;1.40;;
28629;SDS011;15817;42.130;24.762;2023-11-19T11:49:39;2.28;;;1.63;;
28629;SDS011;15817;42.130;24.762;2023-11-19T11:53:13;1.83;;;1.40;;
28629;SDS011;15817;42.130;24.762;2023-11-19T11:58:44;1.58;;;1.45;;
28629;SDS011;15817;42.130;24.762;2023-11-19T12:01:58;1.40;;;1.30;;
28629;SDS011;15817;42.130;24.762;2023-11-19T12:05:10;2.08;;;1.27;;
28629;SDS011;15817;42.130;24.762;2023-11-19T12:14:14;1.30;;;1.20;;
28629;SDS011;15817;42.130;24.762;2023-11-19T12:20:39;3.28;;;1.42;;
28629;SDS011;15817;42.130;24.762;2023-11-19T12:23:43;1.92;;;1.70;;
28629;SDS011;15817;42.130;24.762;2023-11-19T12:55:46;2.45;;;2.00;;
28629;SDS011;15817;42.130;24.762;2023-11-19T12:58:35;1.77;;;1.65;;
28629;SDS011;15817;42.130;24.762;2023-11-19T13:01:59;2.95;;;1.80;;
28629;SDS011;15817;42.130;24.762;2023-11-19T13:09:02;4.88;;;1.60;;
28629;SDS011;15817;42.130;24.762;2023-11-19T13:11:44;2.42;;;2.00;;
28629;SDS011;15817;42.130;24.762;2023-11-19T13:14:58;2.58;;;1.92;;
28629;SDS011;15817;42.130;24.762;2023-11-19T13:17:42;2.75;;;1.92;;
28629;SDS011;15817;42.130;24.762;2023-11-19T13:20:18;2.72;;;2.15;;
28629;SDS011;15817;42.130;24.762;2023-11-19T13:26:13;3.47;;;2.17;;
28629;SDS011;15817;42.130;24.762;2023-11-19T13:28:58;2.60;;;1.73;;
28629;SDS011;15817;42.130;24.762;2023-11-19T13:31:48;2.70;;;2.00;;
28629;SDS011;15817;42.130;24.762;2023-11-19T13:35:25;2.92;;;2.15;;
28629;SDS011;15817;42.130;24.762;2023-11-19T13:38:23;2.05;;;1.70;;
28629;SDS011;15817;42.130;24.762;2023-11-19T13:40:55;2.22;;;1.92;;
28629;SDS011;15817;42.130;24.762;2023-11-19T13:43:32;1.85;;;1.60;;
28629;SDS011;15817;42.130;24.762;2023-11-19T13:49:23;3.15;;;1.65;;
28629;SDS011;15817;42.130;24.762;2023-11-19T13:51:58;2.20;;;2.00;;
28629;SDS011;15817;42.130;24.762;2023-11-19T13:54:38;3.75;;;2.08;;
28629;SDS011;15817;42.130;24.762;2023-11-19T13:57:13;4.60;;;2.00;;
28629;SDS011;15817;42.130;24.762;2023-11-19T14:00:08;3.70;;;2.20;;
28629;SDS011;15817;42.130;24.762;2023-11-19T14:02:46;4.20;;;2.75;;
28629;SDS011;15817;42.130;24.762;2023-11-19T14:05:18;2.20;;;1.73;;
28629;SDS011;15817;42.130;24.762;2023-11-19T14:12:14;2.53;;;2.08;;
28629;SDS011;15817;42.130;24.762;2023-11-19T14:25:54;6.20;;;2.42;;
28629;SDS011;15817;42.130;24.762;2023-11-19T14:28:49;3.75;;;1.92;;
28629;SDS011;15817;42.130;24.762;2023-11-19T14:31:52;3.22;;;2.20;;
28629;SDS011;15817;42.130;24.762;2023-11-19T14:35:15;2.58;;;2.20;;
28629;SDS011;15817;42.130;24.762;2023-11-19T14:38:25;4.35;;;2.78;;
28629;SDS011;15817;42.130;24.762;2023-11-19T14:41:42;2.33;;;2.05;;
28629;SDS011;15817;42.130;24.762;2023-11-19T14:45:01;3.05;;;2.25;;
28629;SDS011;15817;42.130;24.762;2023-11-19T14:47:51;4.20;;;2.10;;
28629;SDS011;15817;42.130;24.762;2023-11-19T14:50:34;1.90;;;1.73;;
28629;SDS011;15817;42.130;24.762;2023-11-19T14:53:12;2.83;;;1.88;;
28629;SDS011;15817;42.130;24.762;2023-11-19T15:31:06;3.22;;;2.22;;
28629;SDS011;15817;42.130;24.762;2023-11-19T15:37:29;5.70;;;2.47;;
28629;SDS011;15817;42.130;24.762;2023-11-19T16:31:44;5.50;;;2.70;;
28629;SDS011;15817;42.130;24.762;2023-11-19T17:51:11;11.38;;;4.25;;
28629;SDS011;15817;42.130;24.762;2023-11-19T17:58:19;4.22;;;2.90;;
28629;SDS011;15817;42.130;24.762;2023-11-19T18:01:22;8.35;;;3.20;;
28629;SDS011;15817;42.130;24.762;2023-11-19T18:04:31;4.00;;;2.92;;
28629;SDS011;15817;42.130;24.762;2023-11-19T18:36:31;2.90;;;1.83;;
28629;SDS011;15817;42.130;24.762;2023-11-19T20:09:31;5.00;;;2.20;;
28629;SDS011;15817;42.130;24.762;2023-11-19T20:13:27;13.52;;;2.80;;
28629;SDS011;15817;42.130;24.762;2023-11-19T20:20:56;4.97;;;2.50;;
28629;SDS011;15817;42.130;24.762;2023-11-19T20:52:03;3.10;;;1.88;;
28629;SDS011;15817;42.130;24.762;2023-11-19T20:54:57;3.13;;;1.77;;
28629;SDS011;15817;42.130;24.762;2023-11-19T20:58:10;3.55;;;1.60;;
28629;SDS011;15817;42.130;24.762;2023-11-19T21:00:45;6.70;;;2.22;;
28629;SDS011;15817;42.130;24.762;2023-11-19T21:03:31;5.90;;;1.58;;
28629;SDS011;15817;42.130;24.762;2023-11-19T21:06:04;3.35;;;2.13;;
28629;SDS011;15817;42.130;24.762;2023-11-19T21:08:54;2.88;;;2.22;;
28629;SDS011;15817;42.130;24.762;2023-11-19T21:12:13;4.53;;;2.50;;
28629;SDS011;15817;42.130;24.762;2023-11-19T21:15:07;3.22;;;2.20;;
28629;SDS011;15817;42.130;24.762;2023-11-19T21:17:54;7.15;;;1.80;;
28629;SDS011;15817;42.130;24.762;2023-11-19T21:20:34;3.15;;;1.90;;
28629;SDS011;15817;42.130;24.762;2023-11-19T21:23:29;5.13;;;1.80;;
28629;SDS011;15817;42.130;24.762;2023-11-19T21:26:10;2.03;;;1.73;;
28629;SDS011;15817;42.130;24.762;2023-11-19T21:28:52;2.67;;;1.70;;
28629;SDS011;15817;42.130;24.762;2023-11-19T21:31:45;1.63;;;1.40;;
28629;SDS011;15817;42.130;24.762;2023-11-19T21:34:54;2.28;;;1.60;;
28629;SDS011;15817;42.130;24.762;2023-11-19T21:37:51;2.08;;;1.58;;
28629;SDS011;15817;42.130;24.762;2023-11-19T21:40:33;1.83;;;1.27;;
28629;SDS011;15817;42.130;24.762;2023-11-19T21:46:30;4.40;;;1.33;;
28629;SDS011;15817;42.130;24.762;2023-11-19T21:50:10;2.30;;;1.25;;
28629;SDS011;15817;42.130;24.762;2023-11-19T22:04:16;1.35;;;1.25;;
28629;SDS011;15817;42.130;24.762;2023-11-19T22:07:32;1.63;;;1.38;;
28629;SDS011;15817;42.130;24.762;2023-11-19T22:22:45;4.47;;;1.70;;
28629;SDS011;15817;42.130;24.762;2023-11-19T22:25:13;4.45;;;1.73;;
28629;SDS011;15817;42.130;24.762;2023-11-19T22:27:46;4.70;;;2.10;;
28629;SDS011;15817;42.130;24.762;2023-11-19T22:33:20;2.13;;;1.70;;
28629;SDS011;15817;42.130;24.762;2023-11-19T22:35:56;2.28;;;1.70;;
28629;SDS011;15817;42.130;24.762;2023-11-19T22:38:26;3.70;;;1.98;;
28629;SDS011;15817;42.130;24.762;2023-11-19T22:40:58;3.55;;;2.20;;
28629;SDS011;15817;42.130;24.762;2023-11-19T22:43:36;3.30;;;1.83;;
28629;SDS011;15817;42.130;24.762;2023-11-19T22:46:10;3.17;;;1.90;;
28629;SDS011;15817;42.130;24.762;2023-11-19T22:48:48;2.45;;;1.92;;
28629;SDS011;15817;42.130;24.762;2023-11-19T22:51:22;3.33;;;2.35;;
28629;SDS011;15817;42.130;24.762;2023-11-19T22:53:53;2.20;;;1.92;;
28629;SDS011;15817;42.130;24.762;2023-11-19T22:56:31;2.22;;;1.73;;
28629;SDS011;15817;42.130;24.762;2023-11-19T22:59:16;2.17;;;1.70;;
28629;SDS011;15817;42.130;24.762;2023-11-19T23:01:47;3.47;;;1.95;;
28629;SDS011;15817;42.130;24.762;2023-11-19T23:04:19;2.20;;;1.80;;
28629;SDS011;15817;42.130;24.762;2023-11-19T23:06:48;2.35;;;1.85;;
28629;SDS011;15817;42.130;24.762;2023-11-19T23:09:17;2.10;;;1.77;;
28629;SDS011;15817;42.130;24.762;2023-11-19T23:11:59;8.52;;;2.60;;
28629;SDS011;15817;42.130;24.762;2023-11-19T23:14:33;7.30;;;2.35;;
28629;SDS011;15817;42.130;24.762;2023-11-19T23:17:08;5.53;;;1.88;;
28629;SDS011;15817;42.130;24.762;2023-11-19T23:19:49;11.02;;;2.15;;
28629;SDS011;15817;42.130;24.762;2023-11-19T23:22:17;13.02;;;2.30;;
28629;SDS011;15817;42.130;24.762;2023-11-19T23:24:51;5.82;;;1.92;;
28629;SDS011;15817;42.130;24.762;2023-11-19T23:27:20;5.60;;;2.10;;
28629;SDS011;15817;42.130;24.762;2023-11-19T23:30:18;13.13;;;2.70;;
28629;SDS011;15817;42.130;24.762;2023-11-19T23:32:52;6.13;;;2.20;;
28629;SDS011;15817;42.130;24.762;2023-11-19T23:35:23;2.33;;;1.55;;
28629;SDS011;15817;42.130;24.762;2023-11-19T23:37:52;1.60;;;1.50;;
28629;SDS011;15817;42.130;24.762;2023-11-19T23:40:20;4.30;;;1.55;;
28629;SDS011;15817;42.130;24.762;2023-11-19T23:42:46;3.30;;;1.23;;
28629;SDS011;15817;42.130;24.762;2023-11-19T23:45:23;2.13;;;1.50;;
28629;SDS011;15817;42.130;24.762;2023-11-19T23:47:52;1.40;;;1.30;;
28629;SDS011;15817;42.130;24.762;2023-11-19T23:50:34;1.75;;;1.50;;
28629;SDS011;15817;42.130;24.762;2023-11-19T23:53:12;1.55;;;1.30;;
28629;SDS011;15817;42.130;24.762;2023-11-19T23:55:51;2.03;;;1.23;;
28629;SDS011;15817;42.130;24.762;2023-11-19T23:58:28;1.27;;;1.10;;
